Terminal Aerodrome Forecast
Issued by NWS Wakefield, VA

Home | Current Version | Previous Version | Text Only | Print | Product List | Glossary On
Versions: 1 2 3 4 5 6 7 8 9 10 11 12 13
000
FTUS41 KAKQ 272324
TAFORF
TAF
KORF 272324Z 2800/2824 22014KT P6SM BKN050
     FM280300 22011KT P6SM VCSH OVC040
     FM281200 23008KT P6SM OVC070
     FM281800 19007KT 4SM SHRA BR OVC015=

USA.gov is the U.S. government's official web portal to all federal, state and local government web resources and services.